Time;durP1;ratioP1;P1;durP2;ratioP2;P2;SDS_P1;SDS_P2;PMS_P1;PMS_P2;Temp;Humidity;BMP_temperature;BMP_pressure;BME280_temperature;BME280_humidity;BME280_pressure;Samples;Min_cycle;Max_cycle;Signal;HPM_P1;HPM_P2
2023/06/21 00:01:28;;;;;;;33.67;19.02;;;;;;;19.08;100.00;98719.50;5027786;28;20574;-73
2023/06/21 00:03:53;;;;;;;30.80;17.25;;;;;;;19.01;100.00;98715.03;5007303;28;20113;-73
2023/06/21 00:06:18;;;;;;;26.83;17.55;;;;;;;19.09;100.00;98740.34;5011267;28;20503;-73
2023/06/21 00:08:44;;;;;;;28.13;18.58;;;;;;;18.97;100.00;98740.53;5028074;28;20125;-73
2023/06/21 00:11:09;;;;;;;29.35;17.55;;;;;;;18.95;100.00;98745.44;5020922;28;20029;-73
2023/06/21 00:13:34;;;;;;;32.25;18.60;;;;;;;18.92;100.00;98746.78;5030413;28;20029;-73
2023/06/21 00:16:00;;;;;;;35.33;18.73;;;;;;;18.99;100.00;98749.28;5025297;28;20115;-73
2023/06/21 00:18:25;;;;;;;27.92;17.90;;;;;;;18.96;100.00;98747.91;5025162;28;20495;-73
2023/06/21 00:20:50;;;;;;;31.48;17.63;;;;;;;18.95;100.00;98761.88;5029153;28;20040;-73
2023/06/21 00:23:18;;;;;;;22.00;15.80;;;;;;;18.84;100.00;98739.03;5024841;28;20026;-73
2023/06/21 00:25:43;;;;;;;26.13;16.80;;;;;;;18.88;100.00;98753.84;5020553;28;20399;-73
2023/06/21 00:28:08;;;;;;;23.80;16.00;;;;;;;18.79;100.00;98738.97;5032761;28;20025;-73
2023/06/21 00:30:34;;;;;;;27.75;16.80;;;;;;;18.80;100.00;98743.34;5032377;28;20021;-73
2023/06/21 00:33:00;;;;;;;28.02;15.35;;;;;;;18.76;100.00;98751.28;5040960;28;20029;-73
2023/06/21 00:35:25;;;;;;;22.02;14.88;;;;;;;18.69;100.00;98733.34;5022499;28;20045;-73
2023/06/21 00:37:50;;;;;;;26.77;15.75;;;;;;;18.58;100.00;98738.72;5024818;28;20049;-73
2023/06/21 00:40:16;;;;;;;25.77;15.77;;;;;;;18.55;100.00;98746.63;5022722;28;20019;-73
2023/06/21 00:42:41;;;;;;;22.33;15.80;;;;;;;18.61;100.00;98749.16;5029622;28;20069;-74
2023/06/21 00:45:14;;;;;;;25.95;15.50;;;;;;;18.62;100.00;98747.25;5028964;28;20498;-73
2023/06/21 00:47:40;;;;;;;27.92;16.05;;;;;;;18.60;100.00;98746.66;5031775;28;20060;-73
2023/06/21 00:50:05;;;;;;;28.17;17.02;;;;;;;18.45;100.00;98736.38;5025831;28;20049;-73
2023/06/21 00:52:33;;;;;;;26.27;15.20;;;;;;;18.46;100.00;98742.69;5033782;28;20463;-73
2023/06/21 00:54:58;;;;;;;25.92;14.32;;;;;;;18.44;100.00;98747.56;5022319;28;20137;-73
2023/06/21 00:57:24;;;;;;;28.48;16.33;;;;;;;18.39;100.00;98742.84;5018673;28;20025;-73
2023/06/21 00:59:50;;;;;;;19.02;14.18;;;;;;;18.37;100.00;98761.47;5031246;28;20402;-73
2023/06/21 01:02:15;;;;;;;25.00;15.57;;;;;;;18.38;100.00;98757.66;5033086;28;20029;-73
2023/06/21 01:04:41;;;;;;;23.08;14.38;;;;;;;18.34;100.00;98751.88;5029571;28;20026;-73
2023/06/21 01:07:39;;;;;;;23.58;14.10;;;;;;;18.30;100.00;98749.88;5029007;28;20105;-73
2023/06/21 01:10:16;;;;;;;22.83;12.90;;;;;;;18.26;100.00;98762.41;5033847;28;20499;-73
2023/06/21 01:13:04;;;;;;;17.95;12.65;;;;;;;18.21;100.00;98765.94;5032761;28;20564;-73
2023/06/21 01:15:38;;;;;;;18.65;12.40;;;;;;;18.12;100.00;98753.75;5030438;28;20025;-73
2023/06/21 01:18:06;;;;;;;17.88;12.75;;;;;;;18.14;100.00;98755.16;5026891;28;20021;-74
2023/06/21 01:20:34;;;;;;;17.77;12.43;;;;;;;18.24;100.00;98767.34;5026148;28;20384;-74
2023/06/21 01:23:23;;;;;;;18.33;11.98;;;;;;;18.20;100.00;98785.34;5030321;28;20029;-74
2023/06/21 01:26:10;;;;;;;22.17;11.82;;;;;;;18.10;100.00;98775.06;5034174;28;20068;-74
2023/06/21 01:28:56;;;;;;;17.63;11.60;;;;;;;17.98;100.00;98761.53;5033553;28;20021;-74
2023/06/21 01:31:22;;;;;;;18.02;12.65;;;;;;;18.06;100.00;98769.28;5024091;28;20033;-74
2023/06/21 01:33:49;;;;;;;21.08;12.25;;;;;;;18.13;100.00;98780.91;5013653;28;20022;-74
2023/06/21 01:36:15;;;;;;;24.98;12.48;;;;;;;18.09;100.00;98771.53;5018629;28;20017;-74
2023/06/21 01:38:40;;;;;;;22.75;12.15;;;;;;;18.13;100.00;98778.16;5032647;28;20029;-72
2023/06/21 01:41:10;;;;;;;21.60;11.85;;;;;;;18.12;100.00;98787.44;5043232;28;20112;-72
2023/06/21 01:43:36;;;;;;;17.75;11.90;;;;;;;18.01;100.00;98780.16;5035622;28;20079;-74
2023/06/21 01:46:04;;;;;;;17.63;11.88;;;;;;;17.84;100.00;98758.31;5025352;28;20137;-74
2023/06/21 01:48:33;;;;;;;21.77;12.02;;;;;;;17.95;100.00;98778.44;5022951;28;20029;-74
2023/06/21 01:51:01;;;;;;;18.17;11.40;;;;;;;17.91;100.00;98786.31;5032062;28;20025;-74
2023/06/21 01:53:26;;;;;;;18.15;11.73;;;;;;;17.90;100.00;98786.59;5026003;28;20022;-74
2023/06/21 01:55:53;;;;;;;21.63;12.45;;;;;;;17.81;100.00;98780.69;5023105;28;20396;-74
2023/06/21 01:58:19;;;;;;;19.17;12.15;;;;;;;17.79;100.00;98771.03;5020072;28;20040;-74
2023/06/21 02:00:44;;;;;;;17.63;12.00;;;;;;;17.82;100.00;98789.75;5022858;28;20037;-74
2023/06/21 02:03:11;;;;;;;20.50;12.35;;;;;;;17.88;100.00;98794.22;5030851;28;20045;-74
2023/06/21 02:05:37;;;;;;;19.95;12.15;;;;;;;17.83;100.00;98802.34;5024094;28;20402;-74
2023/06/21 02:08:07;;;;;;;18.70;12.13;;;;;;;17.83;100.00;98805.09;5026728;28;20491;-73
2023/06/21 02:10:32;;;;;;;23.25;12.50;;;;;;;17.84;100.00;98801.25;5035207;28;20029;-74
2023/06/21 02:12:57;;;;;;;21.98;12.73;;;;;;;17.89;100.00;98815.03;5023244;28;20795;-74
2023/06/21 02:15:23;;;;;;;17.80;10.68;;;;;;;17.80;100.00;98817.38;5027948;28;20026;-74
2023/06/21 02:17:51;;;;;;;18.58;11.77;;;;;;;17.78;100.00;98811.28;5016699;28;20021;-74
2023/06/21 02:20:18;;;;;;;19.77;12.05;;;;;;;17.80;100.00;98811.06;5030238;28;20044;-74
2023/06/21 02:22:44;;;;;;;19.55;11.68;;;;;;;17.80;100.00;98838.44;5015322;28;20454;-74
2023/06/21 02:25:11;;;;;;;18.63;11.20;;;;;;;17.74;100.00;98830.09;5021075;28;20045;-74
2023/06/21 02:27:37;;;;;;;17.10;12.70;;;;;;;17.81;100.00;98840.91;5024248;28;20088;-74
2023/06/21 02:30:03;;;;;;;22.10;12.70;;;;;;;17.66;100.00;98822.31;5019461;28;20112;-74
2023/06/21 02:32:28;;;;;;;17.70;12.48;;;;;;;17.56;100.00;98811.22;5030247;28;20063;-74
2023/06/21 02:34:54;;;;;;;22.85;13.02;;;;;;;17.83;100.00;98846.97;5023999;28;20083;-74
2023/06/21 02:37:19;;;;;;;20.35;11.88;;;;;;;17.77;100.00;98838.91;5027355;28;20038;-74
2023/06/21 02:39:44;;;;;;;15.90;11.90;;;;;;;17.74;100.00;98846.53;5025141;28;20025;-74
2023/06/21 02:42:10;;;;;;;20.13;12.48;;;;;;;17.72;100.00;98845.94;5030246;28;20869;-74
2023/06/21 02:44:35;;;;;;;23.13;12.57;;;;;;;17.64;100.00;98838.16;5033138;28;20029;-74
2023/06/21 02:47:01;;;;;;;21.75;12.52;;;;;;;17.61;100.00;98835.91;5033475;28;20097;-74
2023/06/21 02:49:26;;;;;;;15.73;12.48;;;;;;;17.70;100.00;98834.41;5031738;28;20021;-74
2023/06/21 02:51:52;;;;;;;21.73;13.48;;;;;;;17.60;100.00;98825.22;5025862;28;20065;-74
2023/06/21 02:54:18;;;;;;;17.40;12.48;;;;;;;17.68;100.00;98836.59;5024580;28;20361;-74
2023/06/21 02:56:43;;;;;;;20.08;12.50;;;;;;;17.58;100.00;98822.75;5020240;28;21024;-74
2023/06/21 02:59:09;;;;;;;21.60;13.07;;;;;;;17.59;100.00;98838.06;5030825;28;20597;-74
2023/06/21 03:01:34;;;;;;;22.27;13.35;;;;;;;17.69;100.00;98840.97;5030276;28;20041;-74
2023/06/21 03:04:00;;;;;;;25.08;12.70;;;;;;;17.72;100.00;98843.19;5014463;28;20080;-74
2023/06/21 03:06:25;;;;;;;20.05;12.43;;;;;;;17.71;100.00;98855.25;5027343;28;20108;-74
2023/06/21 03:08:51;;;;;;;23.55;12.10;;;;;;;17.67;100.00;98848.59;5012950;28;20038;-74
2023/06/21 03:11:17;;;;;;;22.70;12.27;;;;;;;17.61;100.00;98840.56;5017283;28;20021;-74
2023/06/21 03:13:42;;;;;;;19.85;12.02;;;;;;;17.61;100.00;98846.03;5031358;28;20025;-74
2023/06/21 03:16:08;;;;;;;22.80;12.90;;;;;;;17.62;100.00;98861.38;5029552;28;20028;-74
2023/06/21 03:18:34;;;;;;;17.98;12.70;;;;;;;17.59;100.00;98870.91;5024335;28;20045;-73
2023/06/21 03:21:02;;;;;;;21.48;13.52;;;;;;;17.64;100.00;98864.69;5020208;28;20101;-72
2023/06/21 03:23:28;;;;;;;21.20;13.35;;;;;;;17.66;100.00;98876.22;5012524;28;20392;-66
2023/06/21 03:25:53;;;;;;;21.40;13.82;;;;;;;17.90;100.00;98883.22;5025867;28;20033;-67
2023/06/21 03:28:19;;;;;;;21.42;13.75;;;;;;;17.96;100.00;98881.38;5023019;28;20029;-72
2023/06/21 03:30:44;;;;;;;24.83;14.07;;;;;;;18.06;100.00;98875.25;5016911;28;20435;-70
2023/06/21 03:33:10;;;;;;;20.80;13.23;;;;;;;18.21;100.00;98888.31;5017527;28;20109;-70
2023/06/21 03:35:36;;;;;;;19.17;12.15;;;;;;;18.24;100.00;98885.94;5024278;28;20506;-70
2023/06/21 03:38:01;;;;;;;17.73;12.55;;;;;;;18.22;100.00;98874.38;5030893;28;20040;-71
2023/06/21 03:40:26;;;;;;;22.48;12.13;;;;;;;18.40;100.00;98889.72;5023118;28;20021;-70
2023/06/21 03:42:52;;;;;;;22.88;12.02;;;;;;;18.43;100.00;98891.94;5019067;28;20036;-70
2023/06/21 03:45:17;;;;;;;21.17;11.27;;;;;;;18.49;100.00;98907.38;5029342;28;20479;-70
2023/06/21 03:47:43;;;;;;;18.42;10.23;;;;;;;18.43;100.00;98911.13;5037547;28;20018;-71
2023/06/21 03:50:11;;;;;;;15.20;9.85;;;;;;;18.26;100.00;98893.88;5017318;28;20033;-70
2023/06/21 03:52:37;;;;;;;17.83;10.23;;;;;;;18.33;100.00;98941.09;5017398;28;20034;-69
2023/06/21 03:55:03;;;;;;;16.70;10.40;;;;;;;18.34;100.00;98997.56;5012617;28;20507;-71
2023/06/21 03:57:28;;;;;;;26.77;11.43;;;;;;;18.32;100.00;99052.56;5032566;28;20071;-67
2023/06/21 03:59:53;;;;;;;23.75;13.85;;;;;;;18.53;100.00;99083.06;5020576;28;20112;-68
2023/06/21 04:02:20;;;;;;;24.77;15.93;;;;;;;18.55;100.00;99042.56;5020404;28;20178;-69
2023/06/21 04:04:47;;;;;;;26.60;17.02;;;;;;;18.54;100.00;99028.00;5021912;28;20068;-68
2023/06/21 04:07:12;;;;;;;27.15;17.33;;;;;;;18.56;100.00;99044.19;5016346;28;20010;-70
2023/06/21 04:09:38;;;;;;;30.92;17.70;;;;;;;18.55;100.00;99065.28;5021066;28;20395;-74
2023/06/21 04:12:03;;;;;;;34.70;18.45;;;;;;;18.42;100.00;99016.31;5025028;28;20026;-68
2023/06/21 04:14:29;;;;;;;31.65;18.05;;;;;;;18.39;100.00;99016.78;5030207;28;20109;-70
2023/06/21 04:16:54;;;;;;;25.63;17.45;;;;;;;18.36;100.00;99020.03;5025370;28;20439;-71
2023/06/21 04:19:20;;;;;;;27.17;16.70;;;;;;;18.39;100.00;99003.94;5033859;28;20060;-71
2023/06/21 04:21:45;;;;;;;34.70;18.35;;;;;;;18.40;100.00;99008.34;5025626;28;20053;-68
2023/06/21 04:24:10;;;;;;;39.42;21.48;;;;;;;18.42;100.00;98988.06;5024886;28;20053;-66
2023/06/21 04:26:36;;;;;;;38.75;22.17;;;;;;;18.40;100.00;98983.69;5023081;28;20029;-76
2023/06/21 04:29:01;;;;;;;37.22;20.70;;;;;;;18.40;100.00;98980.13;5031737;28;20180;-71
2023/06/21 04:31:30;;;;;;;37.35;21.10;;;;;;;18.37;100.00;98975.97;5022989;28;20029;-71
2023/06/21 04:33:56;;;;;;;41.05;21.05;;;;;;;18.21;100.00;98948.56;5021857;28;20025;-73
2023/06/21 04:36:22;;;;;;;43.22;20.33;;;;;;;18.27;100.00;98964.03;5016834;28;20029;-75
2023/06/21 04:38:50;;;;;;;34.65;20.98;;;;;;;18.26;100.00;98957.72;5032475;28;20021;-76
2023/06/21 04:41:17;;;;;;;35.67;19.88;;;;;;;18.30;100.00;98958.03;5027627;28;20397;-77
2023/06/21 04:43:42;;;;;;;32.95;20.58;;;;;;;18.42;100.00;98966.16;5043207;28;20021;-78
2023/06/21 04:46:08;;;;;;;30.25;19.10;;;;;;;18.44;100.00;98969.47;5040322;28;20483;-67
2023/06/21 04:48:33;;;;;;;31.25;19.38;;;;;;;18.55;100.00;98961.16;5025883;28;20032;-68
2023/06/21 04:50:58;;;;;;;33.83;19.90;;;;;;;18.55;100.00;98944.72;5027780;28;20120;-66
2023/06/21 04:53:28;;;;;;;41.63;19.02;;;;;;;18.65;100.00;98965.13;5028813;28;20386;-74
2023/06/21 04:55:54;;;;;;;28.70;18.27;;;;;;;18.67;100.00;98984.91;5017766;28;20021;-73
2023/06/21 04:58:20;;;;;;;26.58;17.52;;;;;;;18.73;100.00;99012.13;5039758;28;20064;-74
2023/06/21 05:00:45;;;;;;;33.13;18.40;;;;;;;18.72;100.00;98996.75;5027930;28;20037;-73
2023/06/21 05:03:10;;;;;;;25.35;16.67;;;;;;;18.77;100.00;98996.88;5023147;28;20364;-68
2023/06/21 05:05:36;;;;;;;21.65;14.50;;;;;;;18.60;100.00;98979.56;5033896;28;20386;-70
2023/06/21 05:08:01;;;;;;;22.23;14.20;;;;;;;18.53;100.00;98987.16;5033755;28;20032;-71
2023/06/21 05:10:27;;;;;;;25.38;16.25;;;;;;;18.67;100.00;98993.94;5031164;28;20026;-71
2023/06/21 05:12:52;;;;;;;24.58;16.17;;;;;;;18.73;100.00;99000.31;5025475;28;20108;-72
2023/06/21 05:15:18;;;;;;;26.30;15.30;;;;;;;18.79;100.00;98999.38;5028536;28;20387;-76
2023/06/21 05:17:43;;;;;;;24.48;15.30;;;;;;;18.78;100.00;98982.06;5008647;28;20068;-77
2023/06/21 05:20:09;;;;;;;26.77;14.77;;;;;;;18.73;100.00;98968.28;5026353;28;20054;-77
2023/06/21 05:22:34;;;;;;;21.55;13.32;;;;;;;18.77;100.00;98954.94;5030868;28;20033;-73
2023/06/21 05:25:04;;;;;;;20.25;12.98;;;;;;;19.03;100.00;98989.81;5019536;28;20026;-72
2023/06/21 05:27:30;;;;;;;17.38;12.75;;;;;;;19.13;100.00;98985.56;5028778;28;20025;-72
2023/06/21 05:29:55;;;;;;;16.70;10.20;;;;;;;19.27;100.00;98987.66;5028505;28;20377;-67
2023/06/21 05:32:21;;;;;;;15.23;9.80;;;;;;;19.21;100.00;98983.19;5028409;28;20079;-72
2023/06/21 05:34:46;;;;;;;20.13;9.93;;;;;;;19.17;100.00;98983.97;5024169;28;20025;-67
2023/06/21 05:37:11;;;;;;;18.73;10.65;;;;;;;19.32;100.00;98995.13;5020388;28;20023;-67
2023/06/21 05:39:37;;;;;;;15.43;11.45;;;;;;;19.32;100.00;98988.81;5028183;28;20067;-67
2023/06/21 05:42:02;;;;;;;19.60;11.15;;;;;;;19.27;100.00;98965.72;5021516;28;20033;-67
2023/06/21 05:44:28;;;;;;;14.25;9.63;;;;;;;19.26;100.00;98969.53;5016943;28;20031;-74
2023/06/21 05:46:53;;;;;;;15.52;10.07;;;;;;;19.23;100.00;98958.25;5018171;28;20495;-74
2023/06/21 05:49:19;;;;;;;15.02;9.70;;;;;;;19.36;100.00;98987.19;5030628;28;20424;-68
2023/06/21 05:51:45;;;;;;;14.85;9.07;;;;;;;19.40;100.00;98993.84;5022430;28;20044;-69
2023/06/21 05:54:10;;;;;;;13.93;9.05;;;;;;;19.49;100.00;99006.00;5024550;28;20029;-69
2023/06/21 05:56:37;;;;;;;15.85;8.70;;;;;;;19.39;100.00;99014.97;5021459;28;20415;-69
2023/06/21 05:59:03;;;;;;;16.70;10.35;;;;;;;19.64;100.00;99010.84;5027494;28;20021;-69
2023/06/21 06:01:29;;;;;;;15.13;9.02;;;;;;;19.97;100.00;99017.28;5027095;28;20109;-69
2023/06/21 06:03:54;;;;;;;10.85;8.70;;;;;;;20.12;100.00;99000.94;5020823;28;20126;-69
2023/06/21 06:06:19;;;;;;;17.42;10.85;;;;;;;20.10;100.00;98987.47;5018558;28;20029;-69
2023/06/21 06:08:45;;;;;;;15.05;9.50;;;;;;;20.06;100.00;98955.28;5029284;28;20127;-70
2023/06/21 06:11:10;;;;;;;13.35;8.95;;;;;;;20.03;100.00;98931.09;5016032;28;20484;-69
2023/06/21 06:13:35;;;;;;;11.80;7.80;;;;;;;19.97;100.00;98926.66;5028130;28;20022;-69
2023/06/21 06:16:02;;;;;;;13.93;7.80;;;;;;;19.98;100.00;98951.09;5026908;28;20021;-71
2023/06/21 06:18:27;;;;;;;14.55;7.57;;;;;;;20.23;100.00;98972.47;5025315;28;20156;-69
2023/06/21 06:20:53;;;;;;;13.95;7.07;;;;;;;20.55;100.00;98957.91;5020425;28;20029;-69
2023/06/21 06:23:19;;;;;;;10.02;6.55;;;;;;;20.77;100.00;98944.81;5028845;28;20114;-70
2023/06/21 06:25:44;;;;;;;12.60;6.25;;;;;;;20.89;100.00;98916.28;5030796;28;20021;-77
2023/06/21 06:28:10;;;;;;;13.60;6.72;;;;;;;21.04;100.00;98913.63;5024845;28;20022;-75
2023/06/21 06:30:35;;;;;;;12.32;5.85;;;;;;;21.25;100.00;98900.75;5032954;28;20030;-79
2023/06/21 06:33:00;;;;;;;13.10;6.47;;;;;;;21.37;100.00;98906.81;5034645;28;20025;-74
2023/06/21 06:35:27;;;;;;;12.52;5.25;;;;;;;21.23;100.00;98878.19;5031245;28;20603;-77
2023/06/21 06:37:52;;;;;;;11.82;5.53;;;;;;;21.60;100.00;98891.75;5030456;28;20029;-78
2023/06/21 06:40:18;;;;;;;13.57;5.10;;;;;;;21.87;100.00;98879.66;5032738;28;20074;-77
2023/06/21 06:42:51;;;;;;;9.57;4.93;;;;;;;22.26;100.00;98870.84;5034049;28;20554;-77
2023/06/21 06:45:17;;;;;;;13.00;5.03;;;;;;;22.65;100.00;98859.16;5024859;28;20033;-75
2023/06/21 06:47:42;;;;;;;8.45;4.80;;;;;;;23.24;100.00;98866.66;5023749;28;20522;-69
2023/06/21 06:50:08;;;;;;;8.35;4.55;;;;;;;23.45;100.00;98850.78;5028437;28;20029;-69
2023/06/21 06:52:33;;;;;;;7.10;4.55;;;;;;;23.46;100.00;98840.56;5026698;28;20651;-73
2023/06/21 06:54:59;;;;;;;8.43;4.38;;;;;;;23.99;100.00;98865.56;5025224;28;20025;-70
2023/06/21 06:57:24;;;;;;;9.52;4.97;;;;;;;26.39;100.00;98851.25;5022739;28;20391;-80
2023/06/21 06:59:49;;;;;;;8.50;4.43;;;;;;;29.39;100.00;98854.41;5017023;28;20025;-73
2023/06/21 07:02:15;;;;;;;8.65;4.53;;;;;;;31.22;100.00;98860.34;5022615;28;20490;-68
2023/06/21 07:04:40;;;;;;;8.75;4.43;;;;;;;31.28;100.00;98866.56;5012820;28;20036;-68
2023/06/21 07:07:05;;;;;;;10.15;4.93;;;;;;;32.09;100.00;98856.91;5031714;28;20018;-70
2023/06/21 07:09:33;;;;;;;10.77;4.38;;;;;;;31.76;100.00;98865.25;5030431;28;20507;-68
2023/06/21 07:12:01;;;;;;;9.23;4.22;;;;;;;29.83;100.00;98855.25;5030910;28;20022;-68
2023/06/21 07:14:26;;;;;;;7.63;3.85;;;;;;;29.17;100.00;98847.03;5023370;28;20021;-66
2023/06/21 07:16:51;;;;;;;11.43;4.75;;;;;;;29.40;100.00;98853.28;5012583;28;20054;-67
2023/06/21 07:19:17;;;;;;;10.70;4.18;;;;;;;30.27;100.00;98849.63;5025452;28;20503;-67
2023/06/21 07:21:44;;;;;;;9.77;4.18;;;;;;;32.39;100.00;98841.91;5013686;28;20053;-68
2023/06/21 07:24:09;;;;;;;6.40;4.25;;;;;;;31.62;100.00;98851.56;5010024;28;20052;-67
2023/06/21 07:26:34;;;;;;;7.57;3.63;;;;;;;29.58;100.00;98850.47;5009776;28;20463;-68
2023/06/21 07:29:00;;;;;;;7.72;3.90;;;;;;;28.90;100.00;98856.44;5015619;28;20033;-66
2023/06/21 07:31:26;;;;;;;7.63;4.30;;;;;;;27.90;100.00;98846.63;5022511;28;20128;-68
2023/06/21 07:33:56;;;;;;;8.40;3.80;;;;;;;27.68;100.00;98857.69;5020069;28;20537;-69
2023/06/21 07:36:21;;;;;;;12.10;4.03;;;;;;;30.55;100.00;98841.66;5028377;28;20036;-68
2023/06/21 07:38:48;;;;;;;4.95;3.38;;;;;;;33.48;96.85;98836.63;5014511;28;20037;-69
2023/06/21 07:41:13;;;;;;;5.10;3.55;;;;;;;35.86;75.47;98851.53;5016262;28;20095;-70
2023/06/21 07:43:39;;;;;;;7.05;4.32;;;;;;;37.28;68.35;98860.09;5011783;28;20033;-68
2023/06/21 07:46:04;;;;;;;12.27;4.07;;;;;;;36.09;65.60;98859.25;5022737;28;20026;-68
2023/06/21 07:48:29;;;;;;;10.25;4.03;;;;;;;36.08;65.28;98861.28;5024116;28;20025;-67
2023/06/21 07:50:55;;;;;;;8.57;3.75;;;;;;;36.28;63.47;98866.84;5024445;28;20036;-69
2023/06/21 07:53:20;;;;;;;10.07;4.53;;;;;;;36.99;57.91;98876.56;5027750;28;20450;-67
2023/06/21 07:55:45;;;;;;;5.20;3.72;;;;;;;34.81;68.70;98870.03;5021174;28;20098;-68
2023/06/21 07:58:11;;;;;;;6.97;4.20;;;;;;;32.33;84.16;98862.88;5030403;28;20431;-69
2023/06/21 08:00:36;;;;;;;8.82;4.57;;;;;;;29.84;100.00;98859.72;5034763;28;20029;-68
2023/06/21 08:03:02;;;;;;;11.27;5.70;;;;;;;28.83;100.00;98854.13;5034675;28;20034;-69
2023/06/21 08:05:28;;;;;;;8.70;5.10;;;;;;;27.93;100.00;98853.50;5023882;28;20108;-68
2023/06/21 08:07:55;;;;;;;9.73;5.03;;;;;;;28.37;100.00;98855.41;5031089;28;20029;-66
2023/06/21 08:10:20;;;;;;;12.13;5.60;;;;;;;29.25;100.00;98856.53;5029801;28;20164;-66
2023/06/21 08:12:45;;;;;;;10.40;5.35;;;;;;;29.84;100.00;98834.59;5020207;28;20108;-66
2023/06/21 08:15:10;;;;;;;7.63;4.20;;;;;;;30.43;100.00;98856.31;5022172;28;20025;-66
2023/06/21 08:17:36;;;;;;;8.35;4.90;;;;;;;29.49;100.00;98873.59;5025836;28;20605;-66
2023/06/21 08:20:03;;;;;;;13.68;4.72;;;;;;;29.79;100.00;98875.75;5026456;28;20022;-69
2023/06/21 08:22:28;;;;;;;9.52;4.70;;;;;;;31.94;100.00;98891.13;5026409;28;20029;-67
2023/06/21 08:24:56;;;;;;;8.02;4.47;;;;;;;30.79;100.00;98900.53;5023720;28;20049;-67
2023/06/21 08:27:21;;;;;;;6.82;4.22;;;;;;;30.57;100.00;98887.63;5025368;28;20053;-74
2023/06/21 08:29:47;;;;;;;6.90;3.55;;;;;;;31.06;100.00;98895.66;5030502;28;20072;-77
2023/06/21 08:32:12;;;;;;;6.78;4.32;;;;;;;32.90;95.22;98898.47;5026038;28;20032;-75
2023/06/21 08:34:38;;;;;;;6.82;3.78;;;;;;;34.15;86.95;98893.16;5024590;28;20083;-79
2023/06/21 08:37:03;;;;;;;7.15;3.17;;;;;;;35.91;67.80;98889.84;5017878;28;20093;-79
2023/06/21 08:39:29;;;;;;;6.40;2.83;;;;;;;36.48;66.35;98910.72;5028669;28;20053;-75
2023/06/21 08:41:54;;;;;;;6.97;3.00;;;;;;;33.65;66.72;98900.91;5031982;28;20071;-71
2023/06/21 08:44:20;;;;;;;4.53;2.70;;;;;;;34.12;70.00;98931.19;5025462;28;20025;-71
2023/06/21 08:46:48;;;;;;;7.30;2.92;;;;;;;33.84;69.24;98908.69;5016812;28;20104;-74
2023/06/21 08:49:16;;;;;;;;;;;;;;;32.76;77.05;98932.44;5033111;28;20021;-76
2023/06/21 08:51:44;;;;;;;6.05;2.03;;;;;;;33.36;71.78;98933.66;5019860;28;19917;-71
2023/06/21 08:54:10;;;;;;;6.32;2.67;;;;;;;33.52;72.96;98924.53;5026990;28;20082;-69
2023/06/21 08:57:01;;;;;;;4.68;1.90;;;;;;;32.09;81.27;98926.88;5023030;28;20430;-78
2023/06/21 08:59:35;;;;;;;3.00;1.65;;;;;;;31.51;76.70;98906.25;5025921;28;20041;-78
2023/06/21 09:02:43;;;;;;;5.05;1.92;;;;;;;29.56;90.50;98933.66;5032514;28;20033;-74
2023/06/21 09:05:32;;;;;;;7.68;2.03;;;;;;;27.28;100.00;98930.56;5003657;28;20042;-71
2023/06/21 09:08:01;;;;;;;5.30;2.42;;;;;;;26.58;100.00;98928.06;5011357;28;20026;-75
2023/06/21 09:10:28;;;;;;;3.13;2.20;;;;;;;25.59;100.00;98935.44;5036186;28;20051;-66
2023/06/21 09:12:56;;;;;;;4.40;2.00;;;;;;;25.28;100.00;98924.81;5023117;28;20034;-73
2023/06/21 09:15:23;;;;;;;7.30;2.20;;;;;;;24.53;100.00;98932.84;5030733;28;20033;-75
2023/06/21 09:17:49;;;;;;;5.50;2.15;;;;;;;24.53;100.00;98935.59;5024611;28;20037;-69
2023/06/21 09:20:16;;;;;;;5.18;1.90;;;;;;;23.99;100.00;98943.75;5030168;28;20578;-70
2023/06/21 09:22:42;;;;;;;2.70;1.75;;;;;;;23.86;100.00;98933.38;5025738;28;20383;-69
2023/06/21 09:25:08;;;;;;;6.20;1.90;;;;;;;23.88;100.00;98939.44;5031108;28;20111;-69
2023/06/21 09:27:34;;;;;;;4.00;2.13;;;;;;;23.40;100.00;98925.34;5032703;28;20057;-69
2023/06/21 09:29:59;;;;;;;4.97;1.42;;;;;;;23.46;100.00;98937.19;5021077;28;20030;-70
2023/06/21 09:32:24;;;;;;;3.88;1.75;;;;;;;23.34;100.00;98943.91;5019089;28;20028;-71
2023/06/21 09:34:50;;;;;;;7.68;1.73;;;;;;;22.99;100.00;98927.47;5034426;28;20112;-70
2023/06/21 09:37:35;;;;;;;3.72;1.50;;;;;;;22.85;100.00;98928.06;5028227;28;20025;-69
2023/06/21 09:40:01;;;;;;;4.20;1.50;;;;;;;22.48;100.00;98937.53;5033537;28;20017;-70
2023/06/21 09:42:27;;;;;;;2.67;1.50;;;;;;;22.26;100.00;98934.22;5028668;28;20577;-71
2023/06/21 09:44:53;;;;;;;4.88;2.15;;;;;;;22.05;100.00;98931.44;5033322;28;20133;-70
2023/06/21 09:47:18;;;;;;;3.03;1.70;;;;;;;21.93;100.00;98938.31;5029987;28;20025;-71
2023/06/21 09:49:48;;;;;;;5.95;2.20;;;;;;;21.91;100.00;98935.84;5021174;28;20022;-70
2023/06/21 09:52:14;;;;;;;5.95;1.98;;;;;;;21.91;100.00;98955.13;5028894;28;20102;-68
2023/06/21 09:54:41;;;;;;;3.88;1.65;;;;;;;21.85;100.00;98945.19;5036593;28;20628;-69
2023/06/21 09:57:07;;;;;;;3.50;1.85;;;;;;;21.84;100.00;98946.31;5027547;28;20345;-70
2023/06/21 09:59:37;;;;;;;8.07;2.05;;;;;;;21.80;100.00;98959.00;5030986;28;20037;-70
2023/06/21 10:02:02;;;;;;;5.07;2.40;;;;;;;21.72;100.00;98945.72;5027685;28;20112;-70
2023/06/21 10:04:28;;;;;;;3.30;1.98;;;;;;;21.63;100.00;98940.75;5026886;28;20456;-70
2023/06/21 10:06:56;;;;;;;5.03;2.38;;;;;;;21.29;100.00;98907.34;5024077;28;20018;-74
2023/06/21 10:09:22;;;;;;;5.23;1.93;;;;;;;21.47;100.00;98947.34;5022959;28;20041;-75
2023/06/21 10:11:54;;;;;;;5.80;2.20;;;;;;;21.44;100.00;98945.13;5017146;28;20288;-74
2023/06/21 10:14:25;;;;;;;5.38;2.28;;;;;;;21.41;100.00;98951.19;5036281;28;20032;-74
2023/06/21 10:16:53;;;;;;;6.15;2.00;;;;;;;21.37;100.00;98963.78;5015063;28;20184;-75
2023/06/21 10:19:25;;;;;;;6.63;2.57;;;;;;;21.32;100.00;98974.78;5037630;28;20074;-74
2023/06/21 10:22:14;;;;;;;4.68;2.20;;;;;;;21.36;100.00;98984.16;5024478;28;20476;-74
2023/06/21 10:24:46;;;;;;;3.80;2.15;;;;;;;21.29;100.00;98994.59;5001710;28;20487;-72
2023/06/21 10:27:12;;;;;;;3.88;2.17;;;;;;;21.34;100.00;99005.63;5031866;28;20449;-74
2023/06/21 10:29:39;;;;;;;3.40;2.30;;;;;;;21.08;100.00;98996.41;5023048;28;20037;-72
2023/06/21 10:32:05;;;;;;;10.77;2.83;;;;;;;21.05;100.00;99016.22;5024111;28;20044;-75
2023/06/21 10:34:59;;;;;;;9.13;3.33;;;;;;;21.02;100.00;99025.81;5019587;28;20053;-74
2023/06/21 10:37:36;;;;;;;5.65;2.80;;;;;;;20.98;100.00;99052.19;5026120;28;20091;-75
2023/06/21 10:40:05;;;;;;;5.03;3.10;;;;;;;20.80;100.00;99036.94;5019248;28;20535;-75
2023/06/21 10:42:31;;;;;;;6.82;3.35;;;;;;;20.65;100.00;99043.19;5029379;28;20383;-74
2023/06/21 10:44:58;;;;;;;5.90;3.38;;;;;;;20.65;100.00;99073.44;5020296;28;20032;-74
2023/06/21 10:47:25;;;;;;;11.40;3.30;;;;;;;20.48;100.00;99076.25;5023660;28;20762;-74
2023/06/21 10:49:56;;;;;;;10.35;3.40;;;;;;;20.52;100.00;99090.34;5025778;28;20036;-75
2023/06/21 10:52:23;;;;;;;7.53;3.95;;;;;;;20.59;100.00;99093.69;5032462;28;20083;-74
2023/06/21 10:54:50;;;;;;;10.45;3.58;;;;;;;20.72;100.00;99104.28;5016187;28;20030;-74
2023/06/21 10:57:16;;;;;;;10.13;3.95;;;;;;;20.78;100.00;99100.47;5014220;28;20550;-74
2023/06/21 10:59:42;;;;;;;7.53;3.90;;;;;;;20.96;100.00;99102.00;5013999;28;20033;-75
2023/06/21 11:02:08;;;;;;;11.60;4.13;;;;;;;21.20;100.00;99099.66;5033832;28;20030;-68
2023/06/21 11:05:11;;;;;;;8.43;3.40;;;;;;;21.56;100.00;99077.88;5035053;28;20094;-68
2023/06/21 11:07:38;;;;;;;8.77;3.50;;;;;;;22.21;100.00;99055.50;5023731;28;20030;-66
2023/06/21 11:10:04;;;;;;;6.72;3.40;;;;;;;23.32;100.00;99045.50;5019072;28;20030;-66
2023/06/21 11:12:30;;;;;;;6.07;3.17;;;;;;;24.02;100.00;99034.38;5020346;28;20818;-69
2023/06/21 11:14:57;;;;;;;9.63;3.45;;;;;;;24.82;100.00;99022.19;5014970;28;20037;-67
2023/06/21 11:17:24;;;;;;;6.43;2.97;;;;;;;25.33;100.00;99020.81;5029175;28;20033;-67